Latest Weather Observations for Moss Vale

IDN60801

Issued at 10:32 pm EDT Thursday 8 December 2016 (issued every 30 minutes, with the page automatically refreshed every 10 minutes)

About weather observations | Map of weather stations | Latest weather observations for NSW | Other Formats
Station Details ID: 068239 Name: MOSS VALE AWS Lat: -34.53 Lon: 150.42 Height: 678.4 m
Data from the previous 72 hours. | See also: Recent months at Moss Vale
Date/Time
EDT
Temp
°C
App
Temp
°C
Dew
Point
°C
Rel
Hum
%
Delta-T
°C
Wind Press
QNH
hPa
Press
MSL
hPa
Rain since
9am
mm
Dir  Spd
km/h
Gust
km/h
Spd
kts
Gust
kts
08/10:30pm 18.2 13.6 13.5 74 2.8 W 30 43 16 23 1002.7 1000.0 0.0
08/10:00pm 19.2 14.9 13.2 68 3.5 W 28 54 15 29 1003.2 1000.6 0.0
08/09:30pm 19.9 15.9 12.9 64 4.1 W 26 46 14 25 1003.1 1000.4 0.0
08/09:00pm 20.1 14.7 12.3 61 4.5 WSW 32 50 17 27 1002.9 1000.2 0.0
08/08:45pm 20.1 14.7 12.3 61 4.5 WSW 32 50 17 27 1002.7 1000.0 0.0
08/08:30pm 20.4 15.1 12.4 60 4.6 WSW 32 48 17 26 1003.0 1000.3 0.0
08/08:00pm 21.5 15.4 11.8 54 5.6 WSW 35 61 19 33 1002.7 1000.0 0.0
08/07:30pm 25.1 18.0 9.4 37 8.8 WSW 37 56 20 30 1001.1 998.4 0.0
08/07:28pm 25.3 18.0 8.7 35 9.3 WSW 37 56 20 30 1000.9 998.2 0.0
08/07:19pm 26.8 21.9 8.3 31 10.3 W 24 54 13 29 1000.7 998.0 0.0
08/07:00pm 27.4 23.7 7.8 29 10.9 WNW 17 28 9 15 1000.3 997.6 0.0
08/06:30pm 28.0 23.6 7.3 27 11.4 NW 20 28 11 15 1000.1 997.4 0.0
08/06:00pm 28.0 22.7 6.7 26 11.7 WNW 24 35 13 19 1000.3 997.6 0.0
08/05:30pm 29.5 23.3 6.2 23 12.7 W 28 39 15 21 1000.0 997.3 0.0
08/05:00pm 30.2 24.9 6.8 23 13.0 WNW 24 37 13 20 1000.2 997.5 0.0
08/04:43pm 29.8 23.4 7.1 24 12.6 WNW 30 50 16 27 1000.1 997.4 0.0
08/04:30pm 30.2 24.3 7.4 24 12.7 WNW 28 44 15 24 1000.4 997.7 0.0
08/04:19pm 29.6 23.3 7.5 25 12.3 WNW 30 48 16 26 1000.4 997.7 0.0
08/04:00pm 29.2 24.0 8.8 28 11.7 WNW 26 39 14 21 1001.1 998.4 0.0
08/03:30pm 29.2 23.2 8.8 28 11.6 WNW 30 43 16 23 1001.6 998.9 0.0
08/03:00pm 27.9 22.0 9.2 31 10.7 NW 30 48 16 26 1002.2 999.5 0.0
08/02:57pm 28.0 23.4 9.8 32 10.5 NNW 24 46 13 25 1002.2 999.5 0.0
08/02:30pm 25.9 24.2 16.2 55 6.1 N 20 32 11 17 1003.0 1000.3 0.0
08/02:00pm 25.6 23.5 16.2 56 5.9 NNE 22 32 12 17 1003.5 1000.9 0.0
08/01:30pm 25.1 21.6 16.5 59 5.4 NNE 30 41 16 22 1004.0 1001.3 0.0
08/01:00pm 25.9 23.2 16.7 57 5.9 NNE 26 35 14 19 1004.7 1002.1 0.0
08/12:30pm 25.7 23.8 16.8 58 5.7 N 22 28 12 15 1005.5 1002.8 0.0
08/12:00pm 25.6 23.0 15.9 55 6.1 NNE 24 35 13 19 1006.0 1003.4 0.0
08/11:30am 25.3 22.1 15.3 54 6.2 N 26 37 14 20 1006.6 1004.0 0.0
08/11:00am 25.0 21.3 15.0 53 6.2 N 28 37 15 20 1007.3 1004.7 0.0
08/10:30am 23.9 21.1 15.4 59 5.3 N 24 32 13 17 1007.9 1005.3 0.0
08/10:00am 22.5 19.6 15.1 63 4.5 N 24 32 13 17 1008.6 1006.0 0.0
08/09:30am 21.5 18.2 15.1 67 3.9 N 26 33 14 18 1009.2 1006.6 0.0
08/09:00am 19.8 16.5 15.0 74 2.9 N 26 35 14 19 1009.6 1007.0 0.0
08/08:30am 18.4 16.6 16.0 86 1.5 N 20 28 11 15 1010.6 1008.0 0.0
08/08:21am 18.1 16.3 15.9 87 1.3 N 20 30 11 16 1010.7 1008.1 0.0
08/08:00am 17.2 15.3 15.7 91 0.9 N 20 28 11 15 1010.8 1008.2 0.0
08/07:43am 16.1 14.3 16.1 100 0.0 N 20 28 11 15 1010.9 1008.3 0.0
08/07:30am 15.8 14.1 15.8 100 0.0 N 19 24 10 13 1011.1 1008.6 0.0
08/07:00am 15.3 - - - - N 20 30 11 16 1011.2 1008.7 0.0
08/06:30am 15.1 - - - - N 19 28 10 15 1011.2 1008.7 0.0
08/06:00am 15.0 - - - - NNE 19 30 10 16 1011.2 1008.7 0.0
08/05:30am 15.0 - - - - N 20 26 11 14 1011.2 1008.7 0.0
08/05:00am 15.1 - - - - NNE 17 20 9 11 1011.6 1009.0 0.0
08/04:30am 15.1 - - - - NNE 15 20 8 11 1011.4 1008.9 0.0
08/04:00am 15.1 - - - - N 15 20 8 11 1011.9 1009.3 0.0
08/03:30am 15.1 - - - - N 19 30 10 16 1012.3 1009.7 0.0
08/03:00am 15.3 - - - - NNE 19 26 10 14 1012.5 1010.0 0.0
08/02:30am 15.4 13.4 15.4 100 0.0 NNE 20 28 11 15 1012.9 1010.4 0.0
08/02:00am 15.5 13.1 15.5 100 0.0 NNE 22 32 12 17 1013.4 1010.8 0.0
08/01:51am 15.6 13.6 15.6 100 0.0 N 20 32 11 17 1013.6 1011.0 0.0
08/01:30am 15.7 13.8 15.7 100 0.0 N 20 28 11 15 1013.9 1011.4 0.0
08/01:28am 15.7 13.8 15.7 100 0.0 N 20 28 11 15 1013.9 1011.4 0.0
08/01:00am 15.6 - - - - N 20 30 11 16 1014.2 1011.7 0.0
08/12:30am 15.5 - - - - NNE 28 35 15 19 1014.3 1011.8 0.0
08/12:00am 15.5 - - - - NNE 26 37 14 20 1014.6 1012.1 0.0
 
Date/Time
EDT
Temp
°C
App
Temp
°C
Dew
Point
°C
Rel
Hum
%
Delta-T
°C
Wind Press
QNH
hPa
Press
MSL
hPa
Rain since
9am
mm
Dir  Spd
km/h
Gust
km/h
Spd
kts
Gust
kts
07/11:30pm 15.4 - - - - NNE 26 33 14 18 1014.8 1012.2 0.0
07/11:00pm 15.5 - - - - N 22 32 12 17 1015.3 1012.8 0.0
07/10:38pm 15.5 - - - - NNE 26 35 14 19 1015.3 1012.8 0.0
07/10:30pm 15.6 12.9 15.6 100 0.0 NNE 24 33 13 18 1015.4 1012.9 0.0
07/10:00pm 15.6 12.5 15.6 100 0.0 NNE 26 33 14 18 1015.3 1012.8 0.0
07/09:30pm 15.7 12.6 15.7 100 0.0 NNE 26 39 14 21 1015.4 1012.9 0.0
07/09:00pm 15.9 13.6 15.7 99 0.1 NNE 22 35 12 19 1015.4 1012.9 0.0
07/08:30pm 16.0 13.3 15.5 97 0.3 NE 24 32 13 17 1015.4 1012.9 0.0
07/08:00pm 16.5 14.4 15.2 92 0.8 NE 20 28 11 15 1015.4 1012.9 0.0
07/07:30pm 16.9 14.1 14.2 84 1.6 NE 22 32 12 17 1015.2 1012.7 0.0
07/07:00pm 17.4 14.8 13.9 80 2.1 NE 20 30 11 16 1015.1 1012.6 0.0
07/06:46pm 17.8 15.0 14.3 80 2.1 NNE 22 32 12 17 1015.0 1012.5 0.0
07/06:30pm 17.6 15.0 13.9 79 2.2 NE 20 33 11 18 1015.0 1012.5 0.0
07/06:00pm 18.3 15.8 14.2 77 2.4 NE 20 30 11 16 1014.8 1012.2 0.0
07/05:30pm 17.7 14.5 14.2 80 2.1 ENE 24 35 13 19 1014.5 1012.0 0.0
07/05:00pm 19.7 16.3 14.7 73 3.0 ENE 26 33 14 18 1014.3 1011.8 0.0
07/04:30pm 20.6 16.9 14.0 66 3.9 NE 26 37 14 20 1014.4 1011.9 0.0
07/04:00pm 22.0 18.9 14.4 62 4.6 NNE 24 33 13 18 1014.6 1012.1 0.0
07/03:30pm 21.2 17.2 13.1 60 4.8 NNE 26 35 14 19 1014.8 1012.2 0.0
07/03:00pm 21.5 17.9 13.2 59 4.9 NNE 24 32 13 17 1014.9 1012.3 0.0
07/02:30pm 23.4 20.8 13.8 54 5.8 N 20 33 11 18 1015.4 1012.9 0.0
07/02:00pm 20.5 16.8 12.7 61 4.5 NNE 24 32 13 17 1015.8 1013.3 0.0
07/01:30pm 19.7 17.2 13.4 67 3.7 ENE 19 26 10 14 1016.1 1013.6 0.0
07/01:00pm 20.4 18.8 13.8 66 3.9 ENE 15 24 8 13 1016.4 1013.9 0.0
07/12:30pm 20.2 17.7 12.4 61 4.5 NE 17 28 9 15 1016.8 1014.3 0.0
07/12:00pm 20.6 18.2 12.8 61 4.6 NE 17 26 9 14 1017.0 1014.5 0.0
07/11:30am 18.8 16.9 11.9 64 3.9 ENE 13 19 7 10 1017.2 1014.7 0.0
07/11:00am 19.2 17.7 10.7 58 4.8 SE 9 15 5 8 1017.4 1014.9 0.0
07/10:30am 18.6 17.9 11.9 65 3.8 SSE 7 13 4 7 1017.4 1014.9 0.0
07/10:00am 17.6 16.7 10.5 63 3.9 N 6 9 3 5 1017.3 1014.8 0.0
07/09:30am 18.3 17.1 11.6 65 3.8 ESE 9 13 5 7 1017.0 1014.5 0.0
07/09:00am 16.9 16.6 12.8 77 2.4 N 6 11 3 6 1017.1 1014.6 3.2
07/08:45am 17.2 16.7 13.7 80 2.0 ENE 9 13 5 7 1017.1 1014.6 3.2
07/08:30am 17.2 17.5 14.5 84 1.6 ENE 6 9 3 5 1016.9 1014.4 3.2
07/08:00am 15.7 14.6 13.2 85 1.4 ESE 11 15 6 8 1016.8 1014.3 3.2
07/07:30am 15.3 15.0 14.3 94 0.6 SSE 9 13 5 7 1016.8 1014.3 3.2
07/07:22am 14.6 14.7 13.8 95 0.5 SE 6 9 3 5 1016.8 1014.3 3.2
07/07:04am 14.4 14.7 14.4 100 0.0 SSE 6 7 3 4 1016.5 1014.0 3.2
07/07:00am 14.2 14.4 14.2 100 0.0 SSE 6 7 3 4 1016.4 1013.9 3.2
07/06:30am 13.5 - - - - SE 7 9 4 5 1016.4 1013.9 3.2
07/06:28am 13.4 - - - - ESE 7 9 4 5 1016.4 1013.9 3.2
07/06:00am 12.7 - - - - CALM 0 0 0 0 1016.1 1013.6 3.2
07/05:56am 12.6 - - - - CALM 0 6 0 3 1016.0 1013.5 3.2
07/05:30am 12.7 - - - - SSE 7 9 4 5 1015.7 1013.2 3.2
07/05:17am 13.0 - - - - SE 7 9 4 5 1015.4 1012.9 3.2
07/05:01am 13.1 - - - - SE 7 9 4 5 1015.0 1012.5 3.2
07/05:00am 13.1 - - - - SE 6 9 3 5 1015.0 1012.5 3.2
07/04:34am 13.4 - - - - SSE 6 7 3 4 1014.8 1012.2 3.2
07/04:30am 13.5 - - - - SSE 6 7 3 4 1014.8 1012.2 3.2
07/04:11am 13.6 - - - - CALM 0 0 0 0 1014.6 1012.1 3.2
07/04:01am 13.6 14.7 13.6 100 0.0 CALM 0 0 0 0 1014.6 1012.1 3.2
07/04:00am 13.7 14.9 13.7 100 0.0 CALM 0 0 0 0 1014.6 1012.1 3.2
07/03:30am 14.2 15.5 14.2 100 0.0 CALM 0 0 0 0 1014.6 1012.1 3.2
07/03:00am 14.4 15.8 14.4 100 0.0 CALM 0 0 0 0 1014.8 1012.2 3.2
07/02:30am 14.6 16.1 14.6 100 0.0 CALM 0 0 0 0 1015.0 1012.5 3.2
07/02:00am 14.6 14.9 14.6 100 0.0 SSW 6 7 3 4 1015.5 1013.0 3.2
07/01:30am 14.7 15.1 14.7 100 0.0 S 6 11 3 6 1015.6 1013.1 3.2
07/01:00am 14.8 14.5 14.5 98 0.2 SSW 9 11 5 6 1015.8 1013.3 3.2
07/12:30am 15.0 13.2 12.0 82 1.7 SSW 13 17 7 9 1015.2 1012.7 3.2
07/12:00am 15.2 13.1 9.8 70 2.9 SW 11 13 6 7 1015.2 1012.7 3.2
 
Date/Time
EDT
Temp
°C
App
Temp
°C
Dew
Point
°C
Rel
Hum
%
Delta-T
°C
Wind Press
QNH
hPa
Press
MSL
hPa
Rain since
9am
mm
Dir  Spd
km/h
Gust
km/h
Spd
kts
Gust
kts
06/11:30pm 15.3 13.6 9.9 70 2.9 SW 9 13 5 7 1015.2 1012.7 3.2
06/11:00pm 15.6 13.5 9.7 68 3.2 SW 11 17 6 9 1015.0 1012.5 3.2
06/10:30pm 16.0 13.1 9.7 66 3.4 SW 15 20 8 11 1015.1 1012.6 3.2
06/10:00pm 16.7 12.9 9.1 61 4.1 W 19 30 10 16 1014.9 1012.3 3.2
06/09:30pm 17.3 14.0 8.2 55 4.8 SW 15 22 8 12 1014.9 1012.3 3.2
06/09:00pm 18.3 14.5 7.7 50 5.6 WSW 17 22 9 12 1014.6 1012.1 3.2
06/08:30pm 19.2 14.7 8.5 50 5.7 W 22 35 12 19 1014.1 1011.6 3.2
06/08:00pm 19.3 18.1 13.9 71 3.2 WSW 13 19 7 10 1013.7 1011.2 3.2
06/07:30pm 19.3 19.6 16.0 81 2.0 W 9 13 5 7 1013.5 1010.9 3.2
06/07:00pm 19.6 19.3 15.5 77 2.5 WNW 11 17 6 9 1013.0 1010.5 3.2
06/06:30pm 19.9 18.9 15.7 77 2.6 WNW 15 20 8 11 1012.7 1010.2 3.2
06/06:00pm 20.0 18.7 14.8 72 3.1 WNW 15 20 8 11 1012.1 1009.5 3.2
06/05:30pm 20.1 18.3 15.9 77 2.6 W 20 28 11 15 1012.4 1009.9 3.2
06/05:00pm 20.3 20.2 17.9 86 1.5 SW 15 22 8 12 1012.3 1009.7 3.2
06/04:30pm 18.8 19.9 18.0 95 0.5 SW 9 15 5 8 1012.9 1010.4 3.2
06/04:00pm 18.2 18.4 16.7 91 0.9 SW 11 17 6 9 1013.5 1010.9 3.2
06/03:30pm 18.2 14.9 14.9 81 2.0 SW 26 43 14 23 1013.5 1010.9 3.2
06/03:21pm 19.1 15.5 15.2 78 2.4 SW 28 46 15 25 1013.3 1010.7 3.0
06/03:02pm 20.2 19.4 19.2 94 0.6 WSW 22 32 12 17 1012.9 1010.4 3.0
06/03:00pm 20.4 20.1 19.6 95 0.5 W 20 32 11 17 1012.9 1010.4 3.0
06/02:30pm 20.3 21.5 19.8 97 0.3 WNW 13 20 7 11 1013.2 1010.6 3.0
06/02:00pm 20.1 21.7 19.9 99 0.1 NW 11 17 6 9 1013.0 1010.5 2.8
06/01:55pm 20.2 21.9 20.2 100 0.0 NW 11 15 6 8 1013.0 1010.5 2.8
06/01:30pm 20.1 20.9 19.9 99 0.1 WNW 15 22 8 12 1013.5 1010.9 2.6
06/01:00pm 20.3 21.4 19.6 96 0.5 WSW 13 19 7 10 1013.3 1010.7 2.2
06/12:30pm 20.4 21.1 19.7 96 0.5 WNW 15 20 8 11 1013.4 1010.8 2.2
06/12:00pm 19.6 20.5 19.3 98 0.2 W 13 17 7 9 1013.6 1011.0 2.2
06/11:42am 19.5 20.4 19.3 99 0.1 W 13 20 7 11 1013.9 1011.4 2.2
06/11:30am 19.0 19.7 18.8 99 0.1 WNW 13 17 7 9 1013.8 1011.3 2.2
06/11:04am 19.2 19.7 19.2 100 0.0 N 15 19 8 10 1013.9 1011.4 2.0
06/11:03am 19.1 19.5 19.1 100 0.0 N 15 19 8 10 1013.9 1011.4 2.0
06/11:00am 19.4 19.9 19.2 99 0.1 N 15 17 8 9 1013.8 1011.3 1.8
06/10:32am 18.6 - - - - NNW 9 13 5 7 1014.0 1011.5 1.8
06/10:30am 18.9 - - - - NNW 9 13 5 7 1014.1 1011.6 1.8
06/10:25am 18.6 - - - - NNW 9 11 5 6 1014.0 1011.5 1.8
06/10:20am 18.3 - - - - NW 7 11 4 6 1014.1 1011.6 1.8
06/10:00am 18.0 19.1 18.0 100 0.0 W 9 11 5 6 1014.5 1012.0 0.8
06/09:59am 17.9 19.0 17.9 100 0.0 WNW 9 11 5 6 1014.5 1012.0 0.6
06/09:36am 18.1 19.6 18.1 100 0.0 NNW 7 11 4 6 1014.4 1011.9 0.0
06/09:30am 18.0 19.5 18.0 100 0.0 N 7 11 4 6 1014.4 1011.9 0.0
06/09:00am 17.6 18.9 17.6 100 0.0 N 7 15 4 8 1014.2 1011.7 2.8
06/08:42am 17.2 - - - - N 15 19 8 10 1014.2 1011.7 2.8
06/08:30am 17.3 - - - - NNW 11 15 6 8 1014.1 1011.6 2.8
06/08:20am 17.2 - - - - NNW 11 15 6 8 1014.3 1011.8 2.6
06/08:00am 16.8 - - - - NNW 9 13 5 7 1014.3 1011.8 2.4
06/07:30am 16.6 - - - - NNW 9 13 5 7 1014.2 1011.7 2.2
06/07:00am 16.4 - - - - N 9 13 5 7 1014.2 1011.7 1.6
06/06:30am 16.4 17.2 16.4 100 0.0 NNE 7 11 4 6 1014.1 1011.6 1.2
06/06:00am 16.5 17.4 16.5 100 0.0 NE 7 9 4 5 1013.6 1011.0 1.0
06/05:50am 16.5 17.6 16.5 100 0.0 ENE 6 9 3 5 1013.5 1010.9 1.0
06/05:48am 16.5 17.6 16.5 100 0.0 ENE 6 9 3 5 1013.5 1010.9 1.0
06/05:46am 16.4 17.2 16.4 100 0.0 ENE 7 9 4 5 1013.4 1010.8 1.0
06/05:30am 16.4 17.4 16.4 100 0.0 NE 6 9 3 5 1013.4 1010.8 1.0
06/05:17am 16.5 17.9 16.5 100 0.0 ESE 4 6 2 3 1013.4 1010.8 1.0
06/05:00am 16.5 17.6 16.5 100 0.0 S 6 7 3 4 1013.5 1010.9 0.8
06/04:48am 16.5 17.9 16.5 100 0.0 S 4 7 2 4 1013.7 1011.2 0.8
06/04:30am 16.7 19.0 16.7 100 0.0 CALM 0 0 0 0 1013.8 1011.3 0.4
06/04:00am 16.5 17.4 16.5 100 0.0 ESE 7 13 4 7 1013.5 1010.9 0.4
06/03:30am 16.4 16.5 16.4 100 0.0 ESE 11 15 6 8 1013.7 1011.2 0.4
06/03:00am 16.5 16.6 16.5 100 0.0 ESE 11 15 6 8 1014.2 1011.7 0.2
06/02:30am 16.3 - - - - ESE 7 11 4 6 1014.2 1011.7 0.2
06/02:15am 16.1 16.8 16.1 100 0.0 ESE 7 9 4 5 1014.5 1012.0 0.2
06/02:00am 16.0 18.0 16.0 100 0.0 CALM 0 0 0 0 1014.8 1012.2 0.2
06/01:57am 16.0 18.0 16.0 100 0.0 CALM 0 0 0 0 1014.8 1012.2 0.2
06/01:39am 15.7 17.6 15.7 100 0.0 CALM 0 0 0 0 1015.1 1012.6 0.0
06/01:30am 15.6 17.4 15.6 100 0.0 CALM 0 0 0 0 1015.1 1012.6 0.0
06/01:10am 15.5 17.3 15.5 100 0.0 CALM 0 0 0 0 1015.2 1012.7 0.0
06/01:06am 15.4 17.2 15.4 100 0.0 CALM 0 0 0 0 1015.2 1012.7 0.0
06/01:00am 15.3 17.0 15.3 100 0.0 CALM 0 0 0 0 1015.3 1012.8 0.0
06/12:30am 14.9 16.1 14.9 100 0.0 SSE 2 6 1 3 1015.6 1013.1 0.0
06/12:00am 14.8 16.0 14.8 100 0.0 SSE 2 9 1 5 1015.7 1013.2 0.0
 
Date/Time
EDT
Temp
°C
App
Temp
°C
Dew
Point
°C
Rel
Hum
%
Delta-T
°C
Wind Press
QNH
hPa
Press
MSL
hPa
Rain since
9am
mm
Dir  Spd
km/h
Gust
km/h
Spd
kts
Gust
kts
05/11:30pm 14.6 - - - - SSE 9 13 5 7 1016.0 1013.5 0.0
05/11:09pm 14.5 - - - - S 9 19 5 10 1016.4 1013.9 0.0
05/11:00pm 14.5 - - - - SE 19 28 10 15 1016.4 1013.9 0.0

Other Formats:

Comma delimited format used in spreadsheet applications
http://www.bom.gov.au/fwo/IDN60801/IDN60801.94746.axf

JavaScript Object Notation format (JSON) in row-major order
http://www.bom.gov.au/fwo/IDN60801/IDN60801.94746.json